Saint Monance, United Kingdom
Current Conditions -  °F | °C
As of 1:50 AM on Tuesday 21 Oct 2014 (Local Time) from EGQL Reporting Station
Moderate Rain Moderate Rain  
Wind Chill: 55°   Ceiling: 5000
Heat Index: 55°   Visibility: 6mi
Dew Point: 52°   Wind: 18mph
Humidity: 88%   Direction: 210°SSW
Pressure: 29.23"   Gusts: NA
Location:  56.21°N, 2.77°W
Report Text: EGQL 210050Z 21016KT 9999 RA BKN050 13/11 Q0990 BLU
Loading
Personal Weather Stations






























Interactive Weather Map
Tropical Storm Tracking
New forecast layout! Learn more

10-Day Weather Forecast

Advertisements
Track Severe Weather on mobile